sensor_id;sensor_type;location;lat;lon;timestamp;P1;durP1;ratioP1;P2;durP2;ratioP2
19257;SDS011;9763;48.780;9.212;2023-07-31T00:01:56;1.20;;;0.80;;
19257;SDS011;9763;48.780;9.212;2023-07-31T00:05:20;1.87;;;1.30;;
19257;SDS011;9763;48.780;9.212;2023-07-31T00:08:45;2.00;;;1.00;;
19257;SDS011;9763;48.780;9.212;2023-07-31T00:12:10;2.13;;;1.00;;
19257;SDS011;9763;48.780;9.212;2023-07-31T00:15:34;1.70;;;1.10;;
19257;SDS011;9763;48.780;9.212;2023-07-31T00:18:57;1.30;;;1.00;;
19257;SDS011;9763;48.780;9.212;2023-07-31T00:22:21;2.00;;;1.20;;
19257;SDS011;9763;48.780;9.212;2023-07-31T00:25:46;1.20;;;0.80;;
19257;SDS011;9763;48.780;9.212;2023-07-31T00:29:09;1.47;;;0.90;;
19257;SDS011;9763;48.780;9.212;2023-07-31T00:32:33;1.67;;;1.17;;
19257;SDS011;9763;48.780;9.212;2023-07-31T00:35:56;1.67;;;1.00;;
19257;SDS011;9763;48.780;9.212;2023-07-31T00:39:20;2.17;;;1.10;;
19257;SDS011;9763;48.780;9.212;2023-07-31T00:42:45;2.20;;;1.13;;
19257;SDS011;9763;48.780;9.212;2023-07-31T00:46:09;1.50;;;0.93;;
19257;SDS011;9763;48.780;9.212;2023-07-31T00:49:33;1.60;;;1.03;;
19257;SDS011;9763;48.780;9.212;2023-07-31T00:52:56;2.90;;;1.17;;
19257;SDS011;9763;48.780;9.212;2023-07-31T00:56:20;1.60;;;1.20;;
19257;SDS011;9763;48.780;9.212;2023-07-31T00:59:46;1.43;;;1.10;;
19257;SDS011;9763;48.780;9.212;2023-07-31T01:03:10;2.93;;;1.23;;
19257;SDS011;9763;48.780;9.212;2023-07-31T01:06:36;1.30;;;0.90;;
19257;SDS011;9763;48.780;9.212;2023-07-31T01:10:08;1.40;;;1.00;;
19257;SDS011;9763;48.780;9.212;2023-07-31T01:13:40;1.80;;;0.90;;
19257;SDS011;9763;48.780;9.212;2023-07-31T01:17:06;1.30;;;0.97;;
19257;SDS011;9763;48.780;9.212;2023-07-31T01:20:30;1.53;;;1.10;;
19257;SDS011;9763;48.780;9.212;2023-07-31T01:24:05;1.90;;;1.20;;
19257;SDS011;9763;48.780;9.212;2023-07-31T01:27:53;2.70;;;0.90;;
19257;SDS011;9763;48.780;9.212;2023-07-31T01:31:24;1.57;;;1.13;;
19257;SDS011;9763;48.780;9.212;2023-07-31T01:34:49;1.40;;;1.00;;
19257;SDS011;9763;48.780;9.212;2023-07-31T01:38:15;1.87;;;1.17;;
19257;SDS011;9763;48.780;9.212;2023-07-31T01:41:43;1.80;;;1.10;;
19257;SDS011;9763;48.780;9.212;2023-07-31T01:45:08;1.93;;;0.90;;
19257;SDS011;9763;48.780;9.212;2023-07-31T01:48:33;1.83;;;0.90;;
19257;SDS011;9763;48.780;9.212;2023-07-31T01:51:58;1.40;;;1.17;;
19257;SDS011;9763;48.780;9.212;2023-07-31T01:55:22;1.77;;;1.20;;
19257;SDS011;9763;48.780;9.212;2023-07-31T01:58:45;2.37;;;1.40;;
19257;SDS011;9763;48.780;9.212;2023-07-31T02:02:10;1.70;;;1.33;;
19257;SDS011;9763;48.780;9.212;2023-07-31T02:05:34;1.37;;;1.10;;
19257;SDS011;9763;48.780;9.212;2023-07-31T02:08:57;1.40;;;0.90;;
19257;SDS011;9763;48.780;9.212;2023-07-31T02:12:21;2.43;;;1.27;;
19257;SDS011;9763;48.780;9.212;2023-07-31T02:15:45;1.30;;;0.90;;
19257;SDS011;9763;48.780;9.212;2023-07-31T02:19:10;1.60;;;1.07;;
19257;SDS011;9763;48.780;9.212;2023-07-31T02:22:33;3.60;;;1.27;;
19257;SDS011;9763;48.780;9.212;2023-07-31T02:25:57;1.80;;;1.30;;
19257;SDS011;9763;48.780;9.212;2023-07-31T02:29:20;1.30;;;0.93;;
19257;SDS011;9763;48.780;9.212;2023-07-31T02:32:44;1.70;;;1.23;;
19257;SDS011;9763;48.780;9.212;2023-07-31T02:36:09;2.37;;;1.20;;
19257;SDS011;9763;48.780;9.212;2023-07-31T02:39:32;1.50;;;1.20;;
19257;SDS011;9763;48.780;9.212;2023-07-31T02:42:56;2.10;;;1.33;;
19257;SDS011;9763;48.780;9.212;2023-07-31T02:46:20;1.30;;;1.10;;
19257;SDS011;9763;48.780;9.212;2023-07-31T02:49:46;1.87;;;1.00;;
19257;SDS011;9763;48.780;9.212;2023-07-31T02:53:13;1.90;;;1.40;;
19257;SDS011;9763;48.780;9.212;2023-07-31T02:56:37;2.50;;;1.50;;
19257;SDS011;9763;48.780;9.212;2023-07-31T03:00:01;1.77;;;1.23;;
19257;SDS011;9763;48.780;9.212;2023-07-31T03:03:27;2.20;;;1.13;;
19257;SDS011;9763;48.780;9.212;2023-07-31T03:06:51;1.60;;;1.00;;
19257;SDS011;9763;48.780;9.212;2023-07-31T03:10:16;1.67;;;1.03;;
19257;SDS011;9763;48.780;9.212;2023-07-31T03:13:40;1.80;;;1.33;;
19257;SDS011;9763;48.780;9.212;2023-07-31T03:17:03;1.80;;;1.27;;
19257;SDS011;9763;48.780;9.212;2023-07-31T03:20:27;1.70;;;1.20;;
19257;SDS011;9763;48.780;9.212;2023-07-31T03:23:51;1.60;;;1.10;;
19257;SDS011;9763;48.780;9.212;2023-07-31T03:27:16;1.63;;;1.37;;
19257;SDS011;9763;48.780;9.212;2023-07-31T03:30:39;2.70;;;1.20;;
19257;SDS011;9763;48.780;9.212;2023-07-31T03:34:03;1.63;;;1.20;;
19257;SDS011;9763;48.780;9.212;2023-07-31T03:37:26;1.40;;;1.03;;
19257;SDS011;9763;48.780;9.212;2023-07-31T03:40:50;1.40;;;1.03;;
19257;SDS011;9763;48.780;9.212;2023-07-31T03:44:15;2.73;;;1.10;;
19257;SDS011;9763;48.780;9.212;2023-07-31T03:47:39;1.80;;;1.07;;
19257;SDS011;9763;48.780;9.212;2023-07-31T03:51:03;1.70;;;1.20;;
19257;SDS011;9763;48.780;9.212;2023-07-31T03:54:26;1.80;;;1.03;;
19257;SDS011;9763;48.780;9.212;2023-07-31T03:57:50;1.60;;;1.13;;
19257;SDS011;9763;48.780;9.212;2023-07-31T04:01:15;1.80;;;1.10;;
19257;SDS011;9763;48.780;9.212;2023-07-31T04:04:39;1.47;;;1.07;;
19257;SDS011;9763;48.780;9.212;2023-07-31T04:08:03;1.40;;;1.00;;
19257;SDS011;9763;48.780;9.212;2023-07-31T04:11:27;3.20;;;1.20;;
19257;SDS011;9763;48.780;9.212;2023-07-31T04:14:50;1.90;;;1.40;;
19257;SDS011;9763;48.780;9.212;2023-07-31T04:18:15;1.40;;;0.90;;
19257;SDS011;9763;48.780;9.212;2023-07-31T04:21:39;1.50;;;1.00;;
19257;SDS011;9763;48.780;9.212;2023-07-31T04:25:03;2.07;;;1.20;;
19257;SDS011;9763;48.780;9.212;2023-07-31T04:28:27;2.27;;;1.40;;
19257;SDS011;9763;48.780;9.212;2023-07-31T04:31:53;1.97;;;1.40;;
19257;SDS011;9763;48.780;9.212;2023-07-31T04:35:18;2.10;;;1.30;;
19257;SDS011;9763;48.780;9.212;2023-07-31T04:38:42;1.50;;;1.20;;
19257;SDS011;9763;48.780;9.212;2023-07-31T04:42:05;1.20;;;0.90;;
19257;SDS011;9763;48.780;9.212;2023-07-31T04:45:29;2.10;;;1.50;;
19257;SDS011;9763;48.780;9.212;2023-07-31T04:48:52;1.90;;;1.70;;
19257;SDS011;9763;48.780;9.212;2023-07-31T04:52:17;1.73;;;1.20;;
19257;SDS011;9763;48.780;9.212;2023-07-31T04:55:41;1.60;;;1.13;;
19257;SDS011;9763;48.780;9.212;2023-07-31T04:59:04;3.13;;;1.33;;
19257;SDS011;9763;48.780;9.212;2023-07-31T05:02:28;1.77;;;1.23;;
19257;SDS011;9763;48.780;9.212;2023-07-31T05:05:52;2.43;;;1.40;;
19257;SDS011;9763;48.780;9.212;2023-07-31T05:09:16;2.17;;;1.23;;
19257;SDS011;9763;48.780;9.212;2023-07-31T05:12:40;2.47;;;1.20;;
19257;SDS011;9763;48.780;9.212;2023-07-31T05:16:04;1.40;;;1.10;;
19257;SDS011;9763;48.780;9.212;2023-07-31T05:19:27;2.00;;;1.37;;
19257;SDS011;9763;48.780;9.212;2023-07-31T05:22:51;1.70;;;1.13;;
19257;SDS011;9763;48.780;9.212;2023-07-31T05:26:16;1.50;;;1.10;;
19257;SDS011;9763;48.780;9.212;2023-07-31T05:29:40;1.40;;;1.10;;
19257;SDS011;9763;48.780;9.212;2023-07-31T05:33:03;1.40;;;1.17;;
19257;SDS011;9763;48.780;9.212;2023-07-31T05:36:27;2.30;;;1.20;;
19257;SDS011;9763;48.780;9.212;2023-07-31T05:39:51;1.80;;;1.37;;
19257;SDS011;9763;48.780;9.212;2023-07-31T05:43:16;3.63;;;1.23;;
19257;SDS011;9763;48.780;9.212;2023-07-31T05:46:39;1.40;;;1.03;;
19257;SDS011;9763;48.780;9.212;2023-07-31T05:50:04;2.33;;;1.30;;
19257;SDS011;9763;48.780;9.212;2023-07-31T05:53:28;2.40;;;1.40;;
19257;SDS011;9763;48.780;9.212;2023-07-31T05:56:51;2.07;;;1.40;;
19257;SDS011;9763;48.780;9.212;2023-07-31T06:00:17;1.67;;;1.20;;
19257;SDS011;9763;48.780;9.212;2023-07-31T06:03:40;2.57;;;1.47;;
19257;SDS011;9763;48.780;9.212;2023-07-31T06:07:04;2.87;;;1.30;;
19257;SDS011;9763;48.780;9.212;2023-07-31T06:10:28;1.40;;;1.03;;
19257;SDS011;9763;48.780;9.212;2023-07-31T06:13:52;1.80;;;1.17;;
19257;SDS011;9763;48.780;9.212;2023-07-31T06:17:17;2.80;;;1.30;;
19257;SDS011;9763;48.780;9.212;2023-07-31T06:20:41;1.50;;;1.17;;
19257;SDS011;9763;48.780;9.212;2023-07-31T06:24:05;1.80;;;1.40;;
19257;SDS011;9763;48.780;9.212;2023-07-31T06:27:28;1.70;;;1.30;;
19257;SDS011;9763;48.780;9.212;2023-07-31T06:30:52;1.50;;;1.20;;
19257;SDS011;9763;48.780;9.212;2023-07-31T06:34:17;2.30;;;1.30;;
19257;SDS011;9763;48.780;9.212;2023-07-31T06:37:41;1.93;;;1.20;;
19257;SDS011;9763;48.780;9.212;2023-07-31T06:41:06;1.70;;;1.20;;
19257;SDS011;9763;48.780;9.212;2023-07-31T06:44:29;2.13;;;1.50;;
19257;SDS011;9763;48.780;9.212;2023-07-31T06:47:53;2.80;;;1.20;;
19257;SDS011;9763;48.780;9.212;2023-07-31T06:51:18;2.43;;;1.60;;
19257;SDS011;9763;48.780;9.212;2023-07-31T06:54:41;2.00;;;1.37;;
19257;SDS011;9763;48.780;9.212;2023-07-31T06:58:05;2.27;;;1.40;;
19257;SDS011;9763;48.780;9.212;2023-07-31T07:01:29;2.47;;;1.30;;
19257;SDS011;9763;48.780;9.212;2023-07-31T07:04:52;4.93;;;1.50;;
19257;SDS011;9763;48.780;9.212;2023-07-31T07:08:17;1.80;;;1.40;;
19257;SDS011;9763;48.780;9.212;2023-07-31T07:11:41;1.97;;;1.27;;
19257;SDS011;9763;48.780;9.212;2023-07-31T07:15:05;2.03;;;1.40;;
19257;SDS011;9763;48.780;9.212;2023-07-31T07:18:29;1.70;;;1.27;;
19257;SDS011;9763;48.780;9.212;2023-07-31T07:21:53;2.30;;;1.60;;
19257;SDS011;9763;48.780;9.212;2023-07-31T07:25:19;2.10;;;1.47;;
19257;SDS011;9763;48.780;9.212;2023-07-31T07:28:43;1.80;;;1.40;;
19257;SDS011;9763;48.780;9.212;2023-07-31T07:32:06;2.00;;;1.40;;
19257;SDS011;9763;48.780;9.212;2023-07-31T07:35:32;2.37;;;1.50;;
19257;SDS011;9763;48.780;9.212;2023-07-31T07:38:56;2.70;;;1.40;;
19257;SDS011;9763;48.780;9.212;2023-07-31T07:42:21;2.40;;;1.37;;
19257;SDS011;9763;48.780;9.212;2023-07-31T07:45:45;1.70;;;1.27;;
19257;SDS011;9763;48.780;9.212;2023-07-31T07:49:08;2.03;;;1.40;;
19257;SDS011;9763;48.780;9.212;2023-07-31T07:52:32;2.13;;;1.30;;
19257;SDS011;9763;48.780;9.212;2023-07-31T07:55:55;1.93;;;1.53;;
19257;SDS011;9763;48.780;9.212;2023-07-31T07:59:20;2.00;;;1.57;;
19257;SDS011;9763;48.780;9.212;2023-07-31T08:02:44;2.27;;;1.33;;
19257;SDS011;9763;48.780;9.212;2023-07-31T08:06:08;2.53;;;1.20;;
19257;SDS011;9763;48.780;9.212;2023-07-31T08:09:32;2.73;;;1.50;;
19257;SDS011;9763;48.780;9.212;2023-07-31T08:12:56;2.00;;;1.60;;
19257;SDS011;9763;48.780;9.212;2023-07-31T08:16:21;6.13;;;1.80;;
19257;SDS011;9763;48.780;9.212;2023-07-31T08:19:45;2.23;;;1.30;;
19257;SDS011;9763;48.780;9.212;2023-07-31T08:23:08;4.57;;;1.40;;
19257;SDS011;9763;48.780;9.212;2023-07-31T08:26:32;1.90;;;1.53;;
19257;SDS011;9763;48.780;9.212;2023-07-31T08:29:56;2.53;;;1.43;;
19257;SDS011;9763;48.780;9.212;2023-07-31T08:33:21;1.70;;;1.30;;
19257;SDS011;9763;48.780;9.212;2023-07-31T08:36:44;2.47;;;1.67;;
19257;SDS011;9763;48.780;9.212;2023-07-31T08:40:08;2.93;;;1.43;;
19257;SDS011;9763;48.780;9.212;2023-07-31T08:43:35;2.90;;;1.53;;
19257;SDS011;9763;48.780;9.212;2023-07-31T08:47:00;2.10;;;1.33;;
19257;SDS011;9763;48.780;9.212;2023-07-31T08:50:26;3.77;;;1.40;;
19257;SDS011;9763;48.780;9.212;2023-07-31T08:53:50;2.20;;;1.37;;
19257;SDS011;9763;48.780;9.212;2023-07-31T08:57:15;2.07;;;1.43;;
19257;SDS011;9763;48.780;9.212;2023-07-31T09:00:40;1.80;;;1.30;;
19257;SDS011;9763;48.780;9.212;2023-07-31T09:04:06;2.93;;;1.60;;
19257;SDS011;9763;48.780;9.212;2023-07-31T09:07:34;2.73;;;1.50;;
19257;SDS011;9763;48.780;9.212;2023-07-31T09:10:59;2.87;;;1.60;;
19257;SDS011;9763;48.780;9.212;2023-07-31T09:14:25;1.83;;;1.30;;
19257;SDS011;9763;48.780;9.212;2023-07-31T09:17:50;2.50;;;1.40;;
19257;SDS011;9763;48.780;9.212;2023-07-31T09:21:23;1.83;;;1.50;;
19257;SDS011;9763;48.780;9.212;2023-07-31T09:24:50;1.97;;;1.50;;
19257;SDS011;9763;48.780;9.212;2023-07-31T09:28:14;3.23;;;1.60;;
19257;SDS011;9763;48.780;9.212;2023-07-31T09:31:39;2.90;;;1.57;;
19257;SDS011;9763;48.780;9.212;2023-07-31T09:35:12;2.10;;;1.40;;
19257;SDS011;9763;48.780;9.212;2023-07-31T09:38:43;5.00;;;1.60;;
19257;SDS011;9763;48.780;9.212;2023-07-31T09:42:08;2.20;;;1.30;;
19257;SDS011;9763;48.780;9.212;2023-07-31T09:45:33;3.70;;;1.60;;
19257;SDS011;9763;48.780;9.212;2023-07-31T09:49:03;2.43;;;1.30;;
19257;SDS011;9763;48.780;9.212;2023-07-31T09:52:29;2.27;;;1.67;;
19257;SDS011;9763;48.780;9.212;2023-07-31T09:55:52;2.70;;;1.40;;
19257;SDS011;9763;48.780;9.212;2023-07-31T09:59:19;2.80;;;1.70;;
19257;SDS011;9763;48.780;9.212;2023-07-31T10:02:45;2.00;;;1.37;;
19257;SDS011;9763;48.780;9.212;2023-07-31T10:06:10;1.87;;;1.40;;
19257;SDS011;9763;48.780;9.212;2023-07-31T10:09:34;2.73;;;1.50;;
19257;SDS011;9763;48.780;9.212;2023-07-31T10:12:59;2.40;;;1.60;;
19257;SDS011;9763;48.780;9.212;2023-07-31T10:16:25;2.03;;;1.77;;
19257;SDS011;9763;48.780;9.212;2023-07-31T10:19:49;2.47;;;1.70;;
19257;SDS011;9763;48.780;9.212;2023-07-31T10:23:13;2.93;;;1.90;;
19257;SDS011;9763;48.780;9.212;2023-07-31T10:26:38;2.13;;;1.30;;
19257;SDS011;9763;48.780;9.212;2023-07-31T10:30:07;2.43;;;1.40;;
19257;SDS011;9763;48.780;9.212;2023-07-31T10:33:38;4.40;;;1.90;;
19257;SDS011;9763;48.780;9.212;2023-07-31T10:37:22;2.53;;;1.60;;
19257;SDS011;9763;48.780;9.212;2023-07-31T10:40:48;2.33;;;1.57;;
19257;SDS011;9763;48.780;9.212;2023-07-31T10:44:13;3.60;;;1.77;;
19257;SDS011;9763;48.780;9.212;2023-07-31T10:47:42;4.33;;;1.70;;
19257;SDS011;9763;48.780;9.212;2023-07-31T10:51:10;2.17;;;1.60;;
19257;SDS011;9763;48.780;9.212;2023-07-31T10:54:34;2.10;;;1.37;;
19257;SDS011;9763;48.780;9.212;2023-07-31T10:58:04;3.23;;;1.70;;
19257;SDS011;9763;48.780;9.212;2023-07-31T11:05:16;2.07;;;1.73;;
19257;SDS011;9763;48.780;9.212;2023-07-31T11:08:43;2.77;;;1.73;;
19257;SDS011;9763;48.780;9.212;2023-07-31T11:12:07;3.27;;;2.17;;
19257;SDS011;9763;48.780;9.212;2023-07-31T11:15:32;2.00;;;1.60;;
19257;SDS011;9763;48.780;9.212;2023-07-31T11:18:55;2.83;;;1.70;;
19257;SDS011;9763;48.780;9.212;2023-07-31T11:22:19;2.00;;;1.63;;
19257;SDS011;9763;48.780;9.212;2023-07-31T11:25:45;3.83;;;1.77;;
19257;SDS011;9763;48.780;9.212;2023-07-31T11:29:10;3.80;;;1.60;;
19257;SDS011;9763;48.780;9.212;2023-07-31T11:32:35;2.00;;;1.53;;
19257;SDS011;9763;48.780;9.212;2023-07-31T11:35:59;2.90;;;1.60;;
19257;SDS011;9763;48.780;9.212;2023-07-31T11:39:23;2.77;;;1.80;;
19257;SDS011;9763;48.780;9.212;2023-07-31T11:42:49;1.77;;;1.37;;
19257;SDS011;9763;48.780;9.212;2023-07-31T11:46:13;2.60;;;1.53;;
19257;SDS011;9763;48.780;9.212;2023-07-31T11:49:37;1.93;;;1.73;;
19257;SDS011;9763;48.780;9.212;2023-07-31T11:53:03;2.57;;;1.73;;
19257;SDS011;9763;48.780;9.212;2023-07-31T11:56:31;2.17;;;1.40;;
19257;SDS011;9763;48.780;9.212;2023-07-31T11:59:57;2.80;;;1.83;;
19257;SDS011;9763;48.780;9.212;2023-07-31T12:03:21;2.60;;;1.77;;
19257;SDS011;9763;48.780;9.212;2023-07-31T12:06:45;1.67;;;1.53;;
19257;SDS011;9763;48.780;9.212;2023-07-31T12:10:09;1.90;;;1.40;;
19257;SDS011;9763;48.780;9.212;2023-07-31T12:13:32;2.13;;;1.40;;
19257;SDS011;9763;48.780;9.212;2023-07-31T12:16:59;3.73;;;1.53;;
19257;SDS011;9763;48.780;9.212;2023-07-31T12:20:29;1.97;;;1.50;;
19257;SDS011;9763;48.780;9.212;2023-07-31T12:23:54;1.97;;;1.50;;
19257;SDS011;9763;48.780;9.212;2023-07-31T12:27:18;2.70;;;1.53;;
19257;SDS011;9763;48.780;9.212;2023-07-31T12:30:43;3.20;;;1.87;;
19257;SDS011;9763;48.780;9.212;2023-07-31T12:34:15;2.00;;;1.60;;
19257;SDS011;9763;48.780;9.212;2023-07-31T12:37:42;2.20;;;1.50;;
19257;SDS011;9763;48.780;9.212;2023-07-31T12:41:06;2.67;;;1.90;;
19257;SDS011;9763;48.780;9.212;2023-07-31T12:44:30;2.00;;;1.70;;
19257;SDS011;9763;48.780;9.212;2023-07-31T12:47:53;2.90;;;1.80;;
19257;SDS011;9763;48.780;9.212;2023-07-31T12:51:18;3.60;;;1.83;;
19257;SDS011;9763;48.780;9.212;2023-07-31T12:54:42;3.00;;;1.77;;
19257;SDS011;9763;48.780;9.212;2023-07-31T12:58:06;3.77;;;1.97;;
19257;SDS011;9763;48.780;9.212;2023-07-31T13:01:30;2.30;;;2.00;;
19257;SDS011;9763;48.780;9.212;2023-07-31T13:04:54;2.07;;;1.67;;
19257;SDS011;9763;48.780;9.212;2023-07-31T13:08:19;2.40;;;1.80;;
19257;SDS011;9763;48.780;9.212;2023-07-31T13:11:43;1.90;;;1.60;;
19257;SDS011;9763;48.780;9.212;2023-07-31T13:15:06;3.90;;;1.50;;
19257;SDS011;9763;48.780;9.212;2023-07-31T13:18:31;2.63;;;1.90;;
19257;SDS011;9763;48.780;9.212;2023-07-31T13:21:54;1.97;;;1.67;;
19257;SDS011;9763;48.780;9.212;2023-07-31T13:25:19;2.23;;;1.70;;
19257;SDS011;9763;48.780;9.212;2023-07-31T13:28:43;2.27;;;1.50;;
19257;SDS011;9763;48.780;9.212;2023-07-31T13:32:07;2.23;;;1.73;;
19257;SDS011;9763;48.780;9.212;2023-07-31T13:35:30;2.30;;;2.10;;
19257;SDS011;9763;48.780;9.212;2023-07-31T13:38:54;2.10;;;1.80;;
19257;SDS011;9763;48.780;9.212;2023-07-31T13:42:19;2.33;;;1.80;;
19257;SDS011;9763;48.780;9.212;2023-07-31T13:45:43;2.90;;;2.13;;
19257;SDS011;9763;48.780;9.212;2023-07-31T13:49:07;2.10;;;1.80;;
19257;SDS011;9763;48.780;9.212;2023-07-31T13:52:30;2.10;;;1.70;;
19257;SDS011;9763;48.780;9.212;2023-07-31T13:55:54;2.43;;;2.00;;
19257;SDS011;9763;48.780;9.212;2023-07-31T13:59:19;2.40;;;1.83;;
19257;SDS011;9763;48.780;9.212;2023-07-31T14:02:43;2.30;;;1.47;;
19257;SDS011;9763;48.780;9.212;2023-07-31T14:06:07;2.40;;;1.50;;
19257;SDS011;9763;48.780;9.212;2023-07-31T14:09:31;2.33;;;1.63;;
19257;SDS011;9763;48.780;9.212;2023-07-31T14:12:55;3.17;;;1.73;;
19257;SDS011;9763;48.780;9.212;2023-07-31T14:16:19;2.20;;;1.60;;
19257;SDS011;9763;48.780;9.212;2023-07-31T14:19:43;2.17;;;1.57;;
19257;SDS011;9763;48.780;9.212;2023-07-31T14:23:07;2.23;;;1.87;;
19257;SDS011;9763;48.780;9.212;2023-07-31T14:26:31;2.10;;;1.60;;
19257;SDS011;9763;48.780;9.212;2023-07-31T14:29:55;3.20;;;1.67;;
19257;SDS011;9763;48.780;9.212;2023-07-31T14:33:20;1.80;;;1.40;;
19257;SDS011;9763;48.780;9.212;2023-07-31T14:36:43;3.00;;;1.80;;
19257;SDS011;9763;48.780;9.212;2023-07-31T14:40:08;2.23;;;1.50;;
19257;SDS011;9763;48.780;9.212;2023-07-31T14:43:34;2.47;;;1.70;;
19257;SDS011;9763;48.780;9.212;2023-07-31T14:46:58;1.70;;;1.50;;
19257;SDS011;9763;48.780;9.212;2023-07-31T14:50:23;1.80;;;1.40;;
19257;SDS011;9763;48.780;9.212;2023-07-31T14:53:48;2.20;;;1.60;;
19257;SDS011;9763;48.780;9.212;2023-07-31T14:57:12;2.03;;;1.50;;
19257;SDS011;9763;48.780;9.212;2023-07-31T15:00:35;2.10;;;1.80;;
19257;SDS011;9763;48.780;9.212;2023-07-31T15:03:59;2.10;;;1.70;;
19257;SDS011;9763;48.780;9.212;2023-07-31T15:07:24;2.30;;;1.60;;
19257;SDS011;9763;48.780;9.212;2023-07-31T15:10:48;2.00;;;1.80;;
19257;SDS011;9763;48.780;9.212;2023-07-31T15:14:17;1.87;;;1.40;;
19257;SDS011;9763;48.780;9.212;2023-07-31T15:17:40;2.10;;;1.77;;
19257;SDS011;9763;48.780;9.212;2023-07-31T15:21:04;2.90;;;1.97;;
19257;SDS011;9763;48.780;9.212;2023-07-31T15:24:30;2.37;;;1.70;;
19257;SDS011;9763;48.780;9.212;2023-07-31T15:27:54;2.60;;;2.00;;
19257;SDS011;9763;48.780;9.212;2023-07-31T15:31:18;2.07;;;1.80;;
19257;SDS011;9763;48.780;9.212;2023-07-31T15:34:41;2.07;;;1.50;;
19257;SDS011;9763;48.780;9.212;2023-07-31T15:38:05;3.40;;;1.80;;
19257;SDS011;9763;48.780;9.212;2023-07-31T15:41:30;2.23;;;1.63;;
19257;SDS011;9763;48.780;9.212;2023-07-31T15:44:54;2.50;;;1.90;;
19257;SDS011;9763;48.780;9.212;2023-07-31T15:48:17;2.37;;;1.77;;
19257;SDS011;9763;48.780;9.212;2023-07-31T15:51:40;2.60;;;2.00;;
19257;SDS011;9763;48.780;9.212;2023-07-31T15:55:04;2.17;;;1.47;;
19257;SDS011;9763;48.780;9.212;2023-07-31T15:58:30;2.13;;;1.60;;
19257;SDS011;9763;48.780;9.212;2023-07-31T16:01:54;3.20;;;1.47;;
19257;SDS011;9763;48.780;9.212;2023-07-31T16:05:17;2.20;;;1.70;;
19257;SDS011;9763;48.780;9.212;2023-07-31T16:08:41;2.20;;;1.83;;
19257;SDS011;9763;48.780;9.212;2023-07-31T16:12:05;4.87;;;1.90;;
19257;SDS011;9763;48.780;9.212;2023-07-31T16:15:32;1.60;;;1.30;;
19257;SDS011;9763;48.780;9.212;2023-07-31T16:18:56;2.93;;;1.70;;
19257;SDS011;9763;48.780;9.212;2023-07-31T16:22:20;1.73;;;1.47;;
19257;SDS011;9763;48.780;9.212;2023-07-31T16:25:43;3.53;;;1.60;;
19257;SDS011;9763;48.780;9.212;2023-07-31T16:29:07;2.40;;;1.70;;
19257;SDS011;9763;48.780;9.212;2023-07-31T16:32:31;3.37;;;1.90;;
19257;SDS011;9763;48.780;9.212;2023-07-31T16:35:55;2.30;;;1.90;;
19257;SDS011;9763;48.780;9.212;2023-07-31T16:39:19;1.97;;;1.60;;
19257;SDS011;9763;48.780;9.212;2023-07-31T16:42:44;2.23;;;1.60;;
19257;SDS011;9763;48.780;9.212;2023-07-31T16:46:07;1.97;;;1.77;;
19257;SDS011;9763;48.780;9.212;2023-07-31T16:49:32;2.73;;;1.90;;
19257;SDS011;9763;48.780;9.212;2023-07-31T16:52:56;3.23;;;1.83;;
19257;SDS011;9763;48.780;9.212;2023-07-31T16:56:20;2.00;;;1.80;;
19257;SDS011;9763;48.780;9.212;2023-07-31T16:59:43;4.47;;;2.13;;
19257;SDS011;9763;48.780;9.212;2023-07-31T17:03:07;3.73;;;2.00;;
19257;SDS011;9763;48.780;9.212;2023-07-31T17:06:32;2.00;;;1.80;;
19257;SDS011;9763;48.780;9.212;2023-07-31T17:09:56;2.13;;;1.80;;
19257;SDS011;9763;48.780;9.212;2023-07-31T17:13:21;2.00;;;1.50;;
19257;SDS011;9763;48.780;9.212;2023-07-31T17:16:44;2.80;;;1.80;;
19257;SDS011;9763;48.780;9.212;2023-07-31T17:20:08;5.23;;;1.60;;
19257;SDS011;9763;48.780;9.212;2023-07-31T17:23:34;2.50;;;1.50;;
19257;SDS011;9763;48.780;9.212;2023-07-31T17:26:57;2.60;;;1.87;;
19257;SDS011;9763;48.780;9.212;2023-07-31T17:30:21;2.00;;;1.60;;
19257;SDS011;9763;48.780;9.212;2023-07-31T17:33:45;3.60;;;1.50;;
19257;SDS011;9763;48.780;9.212;2023-07-31T17:37:08;2.60;;;1.90;;
19257;SDS011;9763;48.780;9.212;2023-07-31T17:40:33;1.70;;;1.40;;
19257;SDS011;9763;48.780;9.212;2023-07-31T17:43:57;2.00;;;1.60;;
19257;SDS011;9763;48.780;9.212;2023-07-31T17:47:21;2.10;;;1.73;;
19257;SDS011;9763;48.780;9.212;2023-07-31T17:50:48;2.00;;;1.80;;
19257;SDS011;9763;48.780;9.212;2023-07-31T17:54:13;1.97;;;1.70;;
19257;SDS011;9763;48.780;9.212;2023-07-31T17:57:38;1.77;;;1.50;;
19257;SDS011;9763;48.780;9.212;2023-07-31T18:01:02;2.17;;;1.97;;
19257;SDS011;9763;48.780;9.212;2023-07-31T18:04:25;2.10;;;1.53;;
19257;SDS011;9763;48.780;9.212;2023-07-31T18:07:49;1.80;;;1.57;;
19257;SDS011;9763;48.780;9.212;2023-07-31T18:11:13;1.97;;;1.43;;
19257;SDS011;9763;48.780;9.212;2023-07-31T18:14:38;2.10;;;1.60;;
19257;SDS011;9763;48.780;9.212;2023-07-31T18:18:01;1.80;;;1.33;;
19257;SDS011;9763;48.780;9.212;2023-07-31T18:21:25;2.20;;;1.20;;
19257;SDS011;9763;48.780;9.212;2023-07-31T18:24:49;1.63;;;1.40;;
19257;SDS011;9763;48.780;9.212;2023-07-31T18:28:12;2.20;;;1.47;;
19257;SDS011;9763;48.780;9.212;2023-07-31T18:31:37;2.43;;;1.80;;
19257;SDS011;9763;48.780;9.212;2023-07-31T18:35:01;1.97;;;1.50;;
19257;SDS011;9763;48.780;9.212;2023-07-31T18:38:25;1.90;;;1.40;;
19257;SDS011;9763;48.780;9.212;2023-07-31T18:41:53;2.97;;;1.40;;
19257;SDS011;9763;48.780;9.212;2023-07-31T18:45:17;2.33;;;1.33;;
19257;SDS011;9763;48.780;9.212;2023-07-31T18:48:45;2.40;;;1.80;;
19257;SDS011;9763;48.780;9.212;2023-07-31T18:52:10;2.27;;;1.30;;
19257;SDS011;9763;48.780;9.212;2023-07-31T18:55:34;1.50;;;1.30;;
19257;SDS011;9763;48.780;9.212;2023-07-31T18:58:58;1.63;;;1.17;;
19257;SDS011;9763;48.780;9.212;2023-07-31T19:02:22;2.80;;;1.53;;
19257;SDS011;9763;48.780;9.212;2023-07-31T19:05:48;4.03;;;2.10;;
19257;SDS011;9763;48.780;9.212;2023-07-31T19:09:12;2.10;;;1.40;;
19257;SDS011;9763;48.780;9.212;2023-07-31T19:12:36;2.37;;;1.70;;
19257;SDS011;9763;48.780;9.212;2023-07-31T19:16:00;2.63;;;1.60;;
19257;SDS011;9763;48.780;9.212;2023-07-31T19:19:23;2.90;;;1.80;;
19257;SDS011;9763;48.780;9.212;2023-07-31T19:22:48;2.10;;;1.70;;
19257;SDS011;9763;48.780;9.212;2023-07-31T19:26:12;1.80;;;1.60;;
19257;SDS011;9763;48.780;9.212;2023-07-31T19:29:35;2.10;;;1.30;;
19257;SDS011;9763;48.780;9.212;2023-07-31T19:32:59;2.97;;;1.83;;
19257;SDS011;9763;48.780;9.212;2023-07-31T19:36:23;2.40;;;1.87;;
19257;SDS011;9763;48.780;9.212;2023-07-31T19:39:49;2.00;;;1.63;;
19257;SDS011;9763;48.780;9.212;2023-07-31T19:43:14;2.00;;;1.83;;
19257;SDS011;9763;48.780;9.212;2023-07-31T19:46:37;1.70;;;1.60;;
19257;SDS011;9763;48.780;9.212;2023-07-31T19:50:02;3.10;;;2.20;;
19257;SDS011;9763;48.780;9.212;2023-07-31T19:53:27;2.47;;;1.60;;
19257;SDS011;9763;48.780;9.212;2023-07-31T19:56:53;1.83;;;1.50;;
19257;SDS011;9763;48.780;9.212;2023-07-31T20:00:19;3.53;;;1.70;;
19257;SDS011;9763;48.780;9.212;2023-07-31T20:03:42;2.20;;;1.60;;
19257;SDS011;9763;48.780;9.212;2023-07-31T20:07:06;1.60;;;1.47;;
19257;SDS011;9763;48.780;9.212;2023-07-31T20:10:30;2.10;;;1.90;;
19257;SDS011;9763;48.780;9.212;2023-07-31T20:13:56;1.83;;;1.40;;
19257;SDS011;9763;48.780;9.212;2023-07-31T20:17:20;2.60;;;1.80;;
19257;SDS011;9763;48.780;9.212;2023-07-31T20:20:44;2.53;;;1.77;;
19257;SDS011;9763;48.780;9.212;2023-07-31T20:24:08;3.40;;;1.60;;
19257;SDS011;9763;48.780;9.212;2023-07-31T20:27:33;2.00;;;1.70;;
19257;SDS011;9763;48.780;9.212;2023-07-31T20:30:58;2.10;;;1.63;;
19257;SDS011;9763;48.780;9.212;2023-07-31T20:34:22;2.17;;;1.77;;
19257;SDS011;9763;48.780;9.212;2023-07-31T20:37:46;1.90;;;1.70;;
19257;SDS011;9763;48.780;9.212;2023-07-31T20:41:10;2.30;;;2.10;;
19257;SDS011;9763;48.780;9.212;2023-07-31T20:44:34;2.30;;;1.83;;
19257;SDS011;9763;48.780;9.212;2023-07-31T20:47:59;1.93;;;1.73;;
19257;SDS011;9763;48.780;9.212;2023-07-31T20:51:23;1.93;;;1.70;;
19257;SDS011;9763;48.780;9.212;2023-07-31T20:54:47;1.53;;;1.43;;